PWSweather.com
Personal Weather Stations
Station Observations
MAKAWAOWX1
Up Country Maui, Makawao, HI 96768

Up Country MauiMakawao, HI 96768

Lat: 20.856944, Lon: -156.3149667

Elevation: 1500

Station Type: Davis Vantage Pro

Latest ConditionsUpdated 4:40:04 AM HST Tuesday, Jul 23, 2019
Currently Today's Max Today's Min Today's Average
Temperature 71.1°F21.7°C 73.1°F22.8°C 71.1°F21.7°C 72.2°F22.3°C
Dew Point 63.1°F17.3°C 65.8°F18.8°C 57.3°F14.1°C 61.1°F16.2°C
Winds Calm Calm 10.4 mph -16.7 kmh - - 5.2 mph 8.4 kmh
Wind Gusts 1.2 mph1.9 kmh 16.1 mph25.9 kmh - -
Humidity 76% 78% 58% 68%
Pressure 29.89 in1012.2 mb 29.91 in1012.9 mb 29.88 in1011.9 mb -
Hour Temp Dew Point Humidity Winds Wind Gusts Pressure Precip Precip Rate Daily Precip Total
04:40 AM 71.1°F21.7°C 63.1°F17.3°C 76% Calm Calm 1.2 mph1.9 kmh 29.89 in1012.2 mb - 0.00 in0.0 mm 0.00 in0.0 mm
04:30 AM 71.5°F21.9°C 62.8°F17.1°C 74% 1.2 mph ENE1.9 kmh ENE 3.5 mph5.6 kmh 29.89 in1012.2 mb - 0.00 in0.0 mm 0.00 in0.0 mm
04:20 AM 71.5°F21.9°C 58.7°F14.8°C 64% 3.5 mph SSE5.6 kmh SSE 3.5 mph5.6 kmh 29.88 in1011.9 mb - 0.00 in0.0 mm 0.00 in0.0 mm
04:10 AM 71.2°F21.8°C 62.5°F16.9°C 74% 2.3 mph E3.7 kmh E 3.5 mph5.6 kmh 29.89 in1012.2 mb - 0.00 in0.0 mm 0.00 in0.0 mm
04:00 AM 71.4°F21.9°C 63.0°F17.2°C 75% 4.6 mph E7.4 kmh E 3.5 mph5.6 kmh 29.89 in1012.2 mb - 0.00 in0.0 mm 0.00 in0.0 mm
03:50 AM 71.7°F22.1°C 63.0°F17.2°C 74% Calm Calm -- 29.88 in1011.9 mb - 0.00 in0.0 mm 0.00 in0.0 mm
03:40 AM 71.6°F22.0°C 60.1°F15.6°C 67% 3.5 mph E5.6 kmh E 5.8 mph9.3 kmh 29.88 in1011.9 mb - 0.00 in0.0 mm 0.00 in0.0 mm
03:30 AM 71.7°F22.1°C 61.4°F16.3°C 70% 2.3 mph E3.7 kmh E 3.5 mph5.6 kmh 29.89 in1012.2 mb - 0.00 in0.0 mm 0.00 in0.0 mm
03:20 AM 71.9°F22.2°C 60.7°F15.9°C 68% 1.2 mph E1.9 kmh E 2.3 mph3.7 kmh 29.89 in1012.2 mb - 0.00 in0.0 mm 0.00 in0.0 mm
03:10 AM 72.0°F22.2°C 61.7°F16.5°C 70% 1.2 mph E1.9 kmh E 3.5 mph5.6 kmh 29.89 in1012.2 mb - 0.00 in0.0 mm 0.00 in0.0 mm
03:00 AM 72.1°F22.3°C 61.8°F16.6°C 70% 3.5 mph E5.6 kmh E 5.8 mph9.3 kmh 29.89 in1012.2 mb - 0.00 in0.0 mm 0.00 in0.0 mm
02:50 AM 72.2°F22.3°C 63.8°F17.7°C 75% 3.5 mph ENE5.6 kmh ENE 5.8 mph9.3 kmh 29.89 in1012.2 mb - 0.00 in0.0 mm 0.00 in0.0 mm
02:40 AM 72.2°F22.3°C 63.1°F17.3°C 73% 4.6 mph E7.4 kmh E 8.1 mph13.0 kmh 29.89 in1012.2 mb - 0.00 in0.0 mm 0.00 in0.0 mm
02:30 AM 72.4°F22.4°C 60.4°F15.8°C 66% 4.6 mph SE7.4 kmh SE 5.8 mph9.3 kmh 29.88 in1011.9 mb - 0.00 in0.0 mm 0.00 in0.0 mm
02:20 AM 72.4°F22.4°C 59.5°F15.3°C 64% 5.8 mph E9.3 kmh E 10.4 mph16.7 kmh 29.89 in1012.2 mb - 0.00 in0.0 mm 0.00 in0.0 mm
02:10 AM 72.5°F22.5°C 60.1°F15.6°C 65% 4.6 mph ESE7.4 kmh ESE 5.8 mph9.3 kmh 29.89 in1012.2 mb - 0.00 in0.0 mm 0.00 in0.0 mm
02:00 AM 72.5°F22.5°C 60.1°F15.6°C 65% 8.1 mph E13.0 kmh E 11.5 mph18.5 kmh 29.89 in1012.2 mb - 0.00 in0.0 mm 0.00 in0.0 mm
01:50 AM 73.1°F22.8°C 65.8°F18.8°C 78% 2.3 mph ENE3.7 kmh ENE 4.6 mph7.4 kmh 29.89 in1012.2 mb - 0.00 in0.0 mm 0.00 in0.0 mm
01:40 AM 72.9°F22.7°C 61.7°F16.5°C 68% 4.6 mph SE7.4 kmh SE 4.6 mph7.4 kmh 29.89 in1012.2 mb - 0.00 in0.0 mm 0.00 in0.0 mm
01:30 AM 72.6°F22.6°C 60.2°F15.7°C 65% 10.4 mph E16.7 kmh E 16.1 mph25.9 kmh 29.89 in1012.2 mb - 0.00 in0.0 mm 0.00 in0.0 mm
01:20 AM 72.3°F22.4°C 59.9°F15.5°C 65% 10.4 mph E16.7 kmh E 11.5 mph18.5 kmh 29.89 in1012.2 mb - 0.00 in0.0 mm 0.00 in0.0 mm
01:10 AM 72.4°F22.4°C 60.0°F15.6°C 65% 10.4 mph ENE16.7 kmh ENE 12.7 mph20.4 kmh 29.89 in1012.2 mb - 0.00 in0.0 mm 0.00 in0.0 mm
01:00 AM 72.7°F22.6°C 59.3°F15.2°C 63% 9.2 mph E14.8 kmh E 9.2 mph14.8 kmh 29.90 in1012.5 mb - 0.00 in0.0 mm 0.00 in0.0 mm
12:50 AM 73.0°F22.8°C 59.2°F15.1°C 62% 5.8 mph E9.3 kmh E 6.9 mph11.1 kmh 29.90 in1012.5 mb - 0.00 in0.0 mm 0.00 in0.0 mm
12:40 AM 73.0°F22.8°C 57.3°F14.1°C 58% 10.4 mph E16.7 kmh E 12.7 mph20.4 kmh 29.90 in1012.5 mb - 0.00 in0.0 mm 0.00 in0.0 mm
12:30 AM 72.5°F22.5°C 57.8°F14.3°C 60% 8.1 mph E13.0 kmh E 11.5 mph18.5 kmh 29.91 in1012.9 mb - 0.00 in0.0 mm 0.00 in0.0 mm
12:20 AM 72.4°F22.4°C 61.2°F16.2°C 68% 6.9 mph E11.1 kmh E 11.5 mph18.5 kmh 29.91 in1012.9 mb - 0.00 in0.0 mm 0.00 in0.0 mm
12:10 AM 72.4°F22.4°C 62.1°F16.7°C 70% 10.4 mph E16.7 kmh E 12.7 mph20.4 kmh 29.91 in1012.9 mb - 0.00 in0.0 mm 0.00 in0.0 mm
12:00 AM 72.2°F22.3°C 61.5°F16.4°C 69% 6.9 mph E11.1 kmh E 11.5 mph18.5 kmh 29.91 in1012.9 mb - 0.00 in0.0 mm 0.00 in0.0 mm